createdAt,value
2022-11-05T00:01:25.031Z,65.00
2022-11-05T00:04:11.538Z,65.90
2022-11-05T00:06:59.453Z,63.60
2022-11-05T00:09:30.166Z,63.00
2022-11-05T00:12:19.517Z,62.10
2022-11-05T00:15:06.555Z,63.50
2022-11-05T00:17:34.769Z,66.50
2022-11-05T00:20:02.947Z,55.90
2022-11-05T00:22:49.612Z,59.90
2022-11-05T00:25:19.051Z,59.20
2022-11-05T00:27:49.764Z,59.40
2022-11-05T00:30:20.801Z,62.40
2022-11-05T00:32:50.497Z,59.40
2022-11-05T00:35:20.680Z,59.80
2022-11-05T00:37:50.294Z,62.30
2022-11-05T00:40:18.811Z,71.00
2022-11-05T00:43:05.236Z,77.20
2022-11-05T00:45:33.111Z,69.10
2022-11-05T00:48:19.428Z,95.10
2022-11-05T00:50:47.277Z,178.60
2022-11-05T00:53:15.138Z,170.40
2022-11-05T00:55:45.122Z,155.40
2022-11-05T00:58:16.123Z,138.80
2022-11-05T01:00:48.930Z,129.90
2022-11-05T01:03:18.913Z,102.40
2022-11-05T01:05:49.499Z,89.20
2022-11-05T01:08:19.848Z,79.20
2022-11-05T01:10:56.521Z,68.90
2022-11-05T01:13:28.033Z,67.80
2022-11-05T01:15:57.048Z,69.60
2022-11-05T01:18:25.398Z,67.20
2022-11-05T01:20:53.296Z,64.70
2022-11-05T01:23:21.490Z,65.90
2022-11-05T01:25:49.634Z,57.90
2022-11-05T01:28:17.525Z,62.30
2022-11-05T01:30:45.355Z,65.00
2022-11-05T01:33:13.552Z,61.30
2022-11-05T01:35:41.707Z,59.90
2022-11-05T01:38:09.471Z,64.60
2022-11-05T01:40:37.440Z,63.90
2022-11-05T01:43:14.546Z,58.60
2022-11-05T01:45:44.590Z,58.60
2022-11-05T01:48:38.630Z,57.30
2022-11-05T01:51:13.931Z,62.80
2022-11-05T01:53:48.795Z,59.50
2022-11-05T01:56:38.218Z,58.70
2022-11-05T01:59:15.287Z,57.60
2022-11-05T02:01:43.333Z,62.20
2022-11-05T02:04:17.941Z,63.70
2022-11-05T02:06:46.821Z,66.60
2022-11-05T02:09:26.581Z,60.90
2022-11-05T02:11:54.464Z,63.10
2022-11-05T02:14:22.307Z,58.20
2022-11-05T02:17:11.112Z,61.80
2022-11-05T02:20:00.832Z,62.10
2022-11-05T02:22:56.348Z,66.60
2022-11-05T02:25:53.407Z,57.50
2022-11-05T02:28:56.763Z,57.90
2022-11-05T02:31:36.865Z,61.60
2022-11-05T02:34:23.758Z,57.60
2022-11-05T02:37:27.371Z,55.20
2022-11-05T02:40:24.005Z,59.60
2022-11-05T02:43:15.236Z,59.30
2022-11-05T02:46:15.099Z,62.50
2022-11-05T02:48:50.692Z,57.50
2022-11-05T02:51:36.234Z,58.40
2022-11-05T02:54:33.339Z,58.90
2022-11-05T02:57:03.842Z,58.70
2022-11-05T02:59:31.801Z,58.20
2022-11-05T03:02:01.735Z,57.30
2022-11-05T03:04:32.145Z,55.30
2022-11-05T03:07:14.412Z,58.40
2022-11-05T03:09:51.285Z,60.00
2022-11-05T03:12:37.076Z,56.40
2022-11-05T03:15:10.915Z,58.30
2022-11-05T03:20:46.539Z,53.60
2022-11-05T03:23:23.680Z,56.90
2022-11-05T03:26:06.605Z,60.90
2022-11-05T03:28:39.879Z,57.30
2022-11-05T03:31:08.784Z,55.60
2022-11-05T03:33:39.914Z,55.20
2022-11-05T03:36:16.218Z,51.70
2022-11-05T03:38:49.627Z,54.90
2022-11-05T03:41:19.903Z,50.20
2022-11-05T03:43:52.071Z,47.10
2022-11-05T03:46:35.092Z,53.90
2022-11-05T03:49:06.089Z,54.70
2022-11-05T03:51:46.086Z,52.10
2022-11-05T03:54:14.620Z,52.60
2022-11-05T03:56:57.781Z,48.50
2022-11-05T03:59:26.410Z,46.90
2022-11-05T04:01:55.137Z,50.90
2022-11-05T04:04:23.139Z,52.00
2022-11-05T04:07:09.750Z,52.60
2022-11-05T04:09:56.327Z,49.60
2022-11-05T04:12:42.675Z,51.00
2022-11-05T04:15:10.960Z,46.90
2022-11-05T04:17:38.801Z,50.00
2022-11-05T04:20:25.795Z,50.70
2022-11-05T04:23:24.514Z,47.50
2022-11-05T04:25:52.371Z,45.80
2022-11-05T04:28:20.152Z,48.60
2022-11-05T04:30:48.003Z,46.20
2022-11-05T04:33:17.178Z,45.10
2022-11-05T04:35:47.278Z,47.80
2022-11-05T04:38:17.530Z,45.80
2022-11-05T04:40:46.811Z,47.00
2022-11-05T04:43:19.187Z,48.20
2022-11-05T04:45:47.376Z,47.20
2022-11-05T04:48:15.246Z,49.10
2022-11-05T04:50:43.053Z,43.50
2022-11-05T04:53:11.131Z,54.00
2022-11-05T04:55:39.179Z,46.40
2022-11-05T04:58:06.955Z,50.40
2022-11-05T05:00:34.850Z,48.60
2022-11-05T05:03:02.718Z,48.00
2022-11-05T05:05:30.683Z,48.80
2022-11-05T05:08:05.177Z,49.80
2022-11-05T05:10:33.084Z,52.10
2022-11-05T05:13:01.020Z,48.40
2022-11-05T05:15:28.891Z,48.80
2022-11-05T05:17:56.843Z,48.40
2022-11-05T05:20:43.532Z,50.90
2022-11-05T05:23:11.531Z,51.00
2022-11-05T05:25:39.771Z,52.80
2022-11-05T05:28:07.711Z,50.60
2022-11-05T05:30:35.673Z,49.80
2022-11-05T05:33:04.691Z,50.90
2022-11-05T05:35:32.696Z,55.00
2022-11-05T05:38:00.529Z,53.20
2022-11-05T05:40:28.399Z,52.80
2022-11-05T05:42:56.377Z,44.00
2022-11-05T05:45:24.117Z,49.50
2022-11-05T05:47:51.999Z,51.30
2022-11-05T05:50:20.052Z,50.50
2022-11-05T05:52:47.895Z,49.50
2022-11-05T05:55:15.825Z,52.60
2022-11-05T05:57:43.628Z,52.80
2022-11-05T06:00:12.415Z,45.30
2022-11-05T06:02:40.455Z,52.60
2022-11-05T06:05:08.773Z,45.90
2022-11-05T06:07:37.576Z,45.10
2022-11-05T06:10:06.419Z,42.90
2022-11-05T06:12:34.271Z,45.50
2022-11-05T06:15:02.240Z,52.00
2022-11-05T06:17:30.174Z,45.10
2022-11-05T06:19:58.125Z,43.90
2022-11-05T06:22:26.044Z,43.30
2022-11-05T06:24:53.918Z,45.30
2022-11-05T06:27:21.964Z,46.50
2022-11-05T06:29:49.879Z,45.60
2022-11-05T06:32:17.710Z,42.80
2022-11-05T06:34:45.660Z,45.20
2022-11-05T06:37:13.621Z,44.40
2022-11-05T06:39:41.606Z,45.10
2022-11-05T06:42:18.393Z,44.30
2022-11-05T06:44:46.933Z,43.60
2022-11-05T06:47:14.961Z,42.10
2022-11-05T06:49:42.853Z,45.30
2022-11-05T06:52:11.165Z,46.10
2022-11-05T06:54:39.658Z,45.40
2022-11-05T06:57:09.994Z,42.80
2022-11-05T06:59:39.478Z,49.00
2022-11-05T07:02:10.549Z,45.40
2022-11-05T07:04:38.521Z,46.30
2022-11-05T07:07:06.422Z,47.80
2022-11-05T07:09:34.331Z,45.80
2022-11-05T07:12:02.183Z,44.00
2022-11-05T07:14:30.043Z,42.60
2022-11-05T07:16:58.122Z,43.30
2022-11-05T07:19:26.014Z,45.10
2022-11-05T07:21:53.836Z,40.30
2022-11-05T07:24:21.764Z,52.80
2022-11-05T07:26:49.632Z,45.50
2022-11-05T07:29:17.558Z,44.70
2022-11-05T07:31:46.989Z,45.70
2022-11-05T07:34:14.913Z,49.90
2022-11-05T07:36:42.828Z,45.40
2022-11-05T07:39:10.749Z,44.90
2022-11-05T07:41:38.616Z,41.20
2022-11-05T07:44:06.498Z,45.50
2022-11-05T07:46:34.427Z,42.60
2022-11-05T07:49:02.382Z,49.00
2022-11-05T07:51:30.286Z,41.90
2022-11-05T07:53:58.084Z,45.60
2022-11-05T07:56:26.215Z,44.10
2022-11-05T07:58:54.075Z,42.80
2022-11-05T08:01:22.194Z,46.90
2022-11-05T08:03:50.320Z,47.40
2022-11-05T08:06:18.333Z,45.80
2022-11-05T08:08:46.200Z,46.10
2022-11-05T08:11:14.074Z,39.40
2022-11-05T08:13:44.271Z,44.90
2022-11-05T08:16:12.296Z,39.10
2022-11-05T08:18:40.173Z,42.70
2022-11-05T08:21:09.113Z,37.80
2022-11-05T08:23:38.681Z,40.40
2022-11-05T08:26:06.648Z,41.80
2022-11-05T08:28:34.470Z,36.80
2022-11-05T08:31:02.548Z,34.90
2022-11-05T08:33:31.571Z,39.00
2022-11-05T08:36:03.422Z,44.80
2022-11-05T08:38:31.467Z,39.50
2022-11-05T08:40:59.450Z,36.40
2022-11-05T08:43:27.381Z,36.70
2022-11-05T08:45:55.331Z,44.50
2022-11-05T08:48:23.175Z,42.00
2022-11-05T08:50:51.019Z,37.10
2022-11-05T08:53:19.039Z,39.70
2022-11-05T08:55:49.986Z,37.50
2022-11-05T08:58:18.307Z,34.30
2022-11-05T09:00:48.333Z,40.80
2022-11-05T09:03:16.737Z,36.80
2022-11-05T09:05:44.664Z,39.10
2022-11-05T09:08:22.013Z,39.20
2022-11-05T09:10:50.053Z,32.60
2022-11-05T09:13:19.890Z,30.90
2022-11-05T09:15:49.636Z,38.60
2022-11-05T09:18:18.827Z,35.70
2022-11-05T09:20:47.326Z,27.90
2022-11-05T09:23:15.710Z,37.50
2022-11-05T09:25:44.752Z,35.90
2022-11-05T09:28:16.860Z,32.90
2022-11-05T09:30:47.805Z,30.40
2022-11-05T09:33:17.132Z,32.80
2022-11-05T09:35:46.067Z,29.00
2022-11-05T09:38:14.014Z,32.70
2022-11-05T09:40:59.826Z,30.90
2022-11-05T09:43:51.701Z,35.20
2022-11-05T09:46:24.279Z,34.00
2022-11-05T09:49:12.341Z,31.70
2022-11-05T09:51:41.478Z,31.40
2022-11-05T09:54:13.043Z,35.60
2022-11-05T09:56:42.178Z,31.80
2022-11-05T09:59:18.539Z,30.10
2022-11-05T10:01:47.385Z,31.90
2022-11-05T10:04:22.742Z,29.70
2022-11-05T10:07:00.649Z,29.90
2022-11-05T10:09:36.777Z,33.90
2022-11-05T10:12:26.382Z,29.10
2022-11-05T10:15:15.887Z,34.00
2022-11-05T10:17:49.232Z,33.20
2022-11-05T10:20:35.316Z,31.90
2022-11-05T10:23:15.320Z,29.70
2022-11-05T10:25:52.908Z,28.50
2022-11-05T10:28:26.843Z,30.20
2022-11-05T10:31:04.949Z,31.80
2022-11-05T10:33:39.332Z,28.30
2022-11-05T10:36:11.706Z,32.40
2022-11-05T10:38:39.581Z,28.60
2022-11-05T10:41:07.488Z,29.60
2022-11-05T10:43:48.112Z,29.20
2022-11-05T10:46:35.457Z,30.10
2022-11-05T10:49:26.544Z,36.60
2022-11-05T10:51:57.315Z,34.50
2022-11-05T10:54:32.075Z,33.80
2022-11-05T10:57:00.024Z,34.00
2022-11-05T10:59:30.334Z,31.00
2022-11-05T11:02:25.929Z,28.50
2022-11-05T11:04:56.589Z,30.00
2022-11-05T11:07:26.094Z,29.10
2022-11-05T11:09:54.085Z,29.50
2022-11-05T11:12:26.202Z,32.20
2022-11-05T11:15:02.855Z,28.20
2022-11-05T11:17:32.629Z,30.20
2022-11-05T11:20:19.888Z,30.00
2022-11-05T11:23:13.126Z,27.80
2022-11-05T11:25:52.903Z,32.70
2022-11-05T11:28:26.485Z,36.90
2022-11-05T11:31:01.548Z,33.70
2022-11-05T11:33:29.954Z,35.10
2022-11-05T11:35:58.516Z,32.40
2022-11-05T11:38:30.805Z,43.80
2022-11-05T11:41:36.502Z,42.70
2022-11-05T11:44:15.122Z,37.40
2022-11-05T11:46:48.822Z,32.50
2022-11-05T11:49:38.521Z,39.40
2022-11-05T11:52:17.176Z,38.60
2022-11-05T11:54:45.415Z,33.50
2022-11-05T11:57:26.135Z,33.00
2022-11-05T12:00:11.814Z,34.90
2022-11-05T12:03:06.832Z,31.80
2022-11-05T12:05:46.804Z,28.00
2022-11-05T12:09:06.761Z,30.30
2022-11-05T12:11:51.811Z,30.70
2022-11-05T12:14:46.293Z,29.30
2022-11-05T12:17:23.533Z,26.60
2022-11-05T12:20:11.585Z,33.10
2022-11-05T12:23:04.409Z,29.00
2022-11-05T12:26:10.962Z,34.70
2022-11-05T12:29:16.588Z,29.70
2022-11-05T12:31:53.704Z,31.70
2022-11-05T12:34:37.606Z,29.90
2022-11-05T12:37:39.582Z,26.80
2022-11-05T12:40:07.464Z,31.80
2022-11-05T12:43:17.829Z,27.70
2022-11-05T12:45:49.056Z,32.70
2022-11-05T12:48:39.790Z,29.20
2022-11-05T12:51:22.791Z,28.00
2022-11-05T12:54:08.948Z,31.80
2022-11-05T12:56:42.017Z,29.90
2022-11-05T12:59:54.278Z,27.70
2022-11-05T13:02:44.865Z,33.80
2022-11-05T13:05:18.534Z,29.10
2022-11-05T13:10:34.303Z,26.30
2022-11-05T13:13:11.474Z,32.90
2022-11-05T13:15:47.807Z,30.60
2022-11-05T13:18:21.514Z,32.30
2022-11-05T13:23:31.269Z,32.30
2022-11-05T13:26:19.489Z,30.40
2022-11-05T13:29:03.849Z,31.10
2022-11-05T13:34:13.506Z,31.70
2022-11-05T13:37:17.781Z,38.30
2022-11-05T13:39:48.273Z,31.00
2022-11-05T13:42:34.590Z,32.10
2022-11-05T13:45:23.811Z,34.00
2022-11-05T13:48:20.594Z,33.60
2022-11-05T13:51:16.476Z,28.30
2022-11-05T13:54:07.855Z,39.40
2022-11-05T13:56:55.049Z,38.00
2022-11-05T13:59:52.145Z,32.90
2022-11-05T14:02:28.570Z,37.40
2022-11-05T14:05:01.211Z,33.40
2022-11-05T14:07:33.203Z,35.70
2022-11-05T14:10:15.899Z,37.60
2022-11-05T14:12:50.257Z,32.10
2022-11-05T14:15:23.567Z,36.40
2022-11-05T14:18:03.653Z,36.00
2022-11-05T14:20:31.458Z,35.00
2022-11-05T14:23:17.488Z,34.60
2022-11-05T14:25:45.316Z,38.90
2022-11-05T14:28:36.438Z,33.40
2022-11-05T14:31:19.780Z,35.30
2022-11-05T14:34:23.947Z,35.10
2022-11-05T14:37:10.350Z,38.10
2022-11-05T14:39:39.282Z,39.70
2022-11-05T14:42:11.917Z,36.70
2022-11-05T14:44:58.402Z,34.60
2022-11-05T14:47:30.731Z,36.40
2022-11-05T14:50:01.595Z,39.20
2022-11-05T14:52:29.559Z,40.10
2022-11-05T14:54:58.539Z,41.60
2022-11-05T14:57:44.749Z,64.60
2022-11-05T15:00:36.586Z,42.40
2022-11-05T15:03:32.447Z,38.90
2022-11-05T15:06:22.212Z,42.10
2022-11-05T15:08:50.199Z,44.40
2022-11-05T15:11:20.741Z,43.20
2022-11-05T15:13:54.769Z,42.70
2022-11-05T15:16:31.588Z,49.00
2022-11-05T15:19:00.240Z,44.70
2022-11-05T15:21:34.227Z,47.80
2022-11-05T15:26:40.240Z,56.70
2022-11-05T15:29:34.684Z,78.00
2022-11-05T15:32:02.942Z,246.50
2022-11-05T15:34:33.864Z,91.40
2022-11-05T15:37:11.031Z,49.90
2022-11-05T15:39:39.958Z,56.50
2022-11-05T15:42:22.969Z,53.00
2022-11-05T15:44:56.968Z,50.60
2022-11-05T15:47:30.283Z,90.10
2022-11-05T15:50:01.501Z,107.90
2022-11-05T15:52:42.162Z,79.20
2022-11-05T15:55:12.993Z,75.40
2022-11-05T15:57:50.409Z,63.40
2022-11-05T16:00:22.502Z,62.60
2022-11-05T16:03:04.590Z,49.60
2022-11-05T16:05:42.235Z,52.10
2022-11-05T16:08:22.499Z,53.40
2022-11-05T16:10:53.520Z,61.20
2022-11-05T16:13:41.691Z,51.60
2022-11-05T16:16:15.647Z,54.70
2022-11-05T16:18:45.400Z,47.70
2022-11-05T16:21:17.662Z,52.70
2022-11-05T16:23:55.666Z,52.80
2022-11-05T16:27:00.536Z,57.30
2022-11-05T16:29:34.842Z,54.90
2022-11-05T16:32:05.849Z,56.40
2022-11-05T16:34:38.637Z,57.10
2022-11-05T16:37:10.593Z,54.80
2022-11-05T16:39:38.482Z,55.60
2022-11-05T16:42:26.101Z,53.20
2022-11-05T16:44:55.359Z,55.10
2022-11-05T16:47:23.612Z,54.00
2022-11-05T16:49:51.994Z,54.70
2022-11-05T16:52:20.002Z,59.60
2022-11-05T16:54:47.906Z,53.50
2022-11-05T16:57:18.880Z,50.90
2022-11-05T16:59:46.774Z,54.20
2022-11-05T17:02:14.940Z,56.10
2022-11-05T17:04:42.975Z,50.10
2022-11-05T17:07:10.810Z,52.90
2022-11-05T17:09:38.764Z,57.10
2022-11-05T17:12:11.638Z,53.50
2022-11-05T17:14:39.491Z,54.90
2022-11-05T17:17:07.505Z,57.00
2022-11-05T17:19:35.521Z,54.20
2022-11-05T17:22:03.436Z,57.70
2022-11-05T17:24:31.411Z,52.70
2022-11-05T17:26:59.294Z,91.00
2022-11-05T17:29:27.087Z,66.80
2022-11-05T17:31:56.791Z,60.30
2022-11-05T17:34:24.657Z,58.80
2022-11-05T17:36:52.496Z,59.60
2022-11-05T17:39:20.375Z,57.90
2022-11-05T17:41:48.901Z,60.60
2022-11-05T17:44:16.811Z,54.60
2022-11-05T17:46:44.644Z,55.30
2022-11-05T17:49:12.553Z,57.00
2022-11-05T17:51:40.459Z,55.80
2022-11-05T17:54:08.259Z,58.40
2022-11-05T17:56:40.253Z,57.70
2022-11-05T17:59:11.291Z,55.70
2022-11-05T18:01:43.454Z,55.00
2022-11-05T18:04:11.946Z,60.00
2022-11-05T18:06:40.998Z,52.00
2022-11-05T18:09:10.999Z,53.90
2022-11-05T18:11:40.112Z,58.40
2022-11-05T18:14:09.172Z,48.90
2022-11-05T18:16:37.142Z,59.60
2022-11-05T18:19:05.147Z,55.10
2022-11-05T18:21:33.091Z,54.30
2022-11-05T18:24:06.191Z,53.60
2022-11-05T18:26:34.994Z,56.40
2022-11-05T18:29:05.440Z,57.60
2022-11-05T18:31:33.359Z,58.00
2022-11-05T18:34:01.276Z,53.20
2022-11-05T18:36:31.092Z,56.80
2022-11-05T18:39:02.219Z,54.70
2022-11-05T18:41:30.497Z,50.20
2022-11-05T18:44:00.035Z,58.90
2022-11-05T18:46:56.679Z,58.60
2022-11-05T18:49:17.989Z,66.10
2022-11-05T18:51:46.174Z,56.20
2022-11-05T18:54:13.967Z,60.10
2022-11-05T18:56:45.552Z,58.50
2022-11-05T18:59:35.566Z,59.10
2022-11-05T19:02:04.287Z,64.90
2022-11-05T19:04:32.293Z,62.90
2022-11-05T19:07:04.399Z,61.00
2022-11-05T19:09:36.910Z,59.10
2022-11-05T19:12:06.422Z,67.10
2022-11-05T19:14:35.367Z,62.70
2022-11-05T19:17:04.277Z,57.30
2022-11-05T19:19:32.163Z,65.50
2022-11-05T19:22:00.045Z,58.70
2022-11-05T19:24:28.339Z,60.10
2022-11-05T19:26:56.596Z,63.50
2022-11-05T19:29:24.471Z,59.80
2022-11-05T19:31:52.439Z,56.90
2022-11-05T19:34:20.690Z,56.50
2022-11-05T19:36:48.657Z,60.20
2022-11-05T19:39:16.564Z,57.60
2022-11-05T19:41:44.507Z,56.60
2022-11-05T19:44:12.444Z,57.10
2022-11-05T19:46:40.347Z,58.90
2022-11-05T19:49:08.126Z,59.30
2022-11-05T19:51:36.534Z,56.80
2022-11-05T19:54:05.089Z,61.50
2022-11-05T19:56:35.044Z,57.70
2022-11-05T19:59:04.386Z,58.70
2022-11-05T20:01:33.429Z,58.30
2022-11-05T20:04:05.594Z,62.30
2022-11-05T20:06:37.898Z,58.10
2022-11-05T20:09:25.807Z,60.30
2022-11-05T20:11:56.293Z,59.20
2022-11-05T20:14:25.791Z,60.30
2022-11-05T20:16:54.553Z,52.80
2022-11-05T20:19:23.055Z,61.90
2022-11-05T20:21:51.241Z,55.00
2022-11-05T20:24:24.770Z,55.50
2022-11-05T20:26:55.269Z,55.80
2022-11-05T20:29:27.846Z,52.90
2022-11-05T20:31:58.654Z,58.00
2022-11-05T20:34:28.869Z,58.10
2022-11-05T20:36:56.724Z,59.20
2022-11-05T20:39:24.652Z,66.00
2022-11-05T20:41:53.468Z,58.40
2022-11-05T20:44:21.319Z,64.30
2022-11-05T20:46:49.231Z,65.50
2022-11-05T20:49:21.270Z,63.20
2022-11-05T20:51:51.902Z,58.40
2022-11-05T20:54:19.823Z,54.00
2022-11-05T20:56:47.605Z,48.80
2022-11-05T20:59:15.685Z,52.60
2022-11-05T21:01:43.929Z,57.60
2022-11-05T21:04:12.060Z,53.50
2022-11-05T21:06:39.945Z,52.80
2022-11-05T21:09:07.897Z,58.00
2022-11-05T21:11:54.316Z,52.80
2022-11-05T21:14:22.158Z,49.60
2022-11-05T21:16:49.983Z,50.50
2022-11-05T21:19:17.819Z,52.40
2022-11-05T21:21:45.707Z,55.90
2022-11-05T21:24:13.652Z,56.60
2022-11-05T21:26:41.513Z,56.60
2022-11-05T21:29:09.453Z,55.90
2022-11-05T21:31:37.697Z,51.80
2022-11-05T21:34:05.649Z,53.80
2022-11-05T21:36:34.130Z,56.00
2022-11-05T21:39:02.530Z,62.70
2022-11-05T21:41:30.468Z,56.60
2022-11-05T21:43:58.526Z,61.90
2022-11-05T21:46:26.403Z,58.90
2022-11-05T21:48:54.269Z,82.70
2022-11-05T21:51:41.704Z,120.20
2022-11-05T21:54:29.892Z,113.30
2022-11-05T21:57:16.330Z,125.70
2022-11-05T21:59:55.276Z,124.70
2022-11-05T22:02:25.039Z,119.40
2022-11-05T22:04:56.333Z,104.50
2022-11-05T22:07:28.252Z,112.10
2022-11-05T22:09:56.627Z,101.50
2022-11-05T22:12:25.438Z,87.20
2022-11-05T22:14:53.425Z,82.70
2022-11-05T22:17:21.845Z,85.70
2022-11-05T22:19:50.024Z,69.40
2022-11-05T22:22:18.812Z,70.00
2022-11-05T22:24:46.852Z,66.50
2022-11-05T22:27:17.929Z,64.50
2022-11-05T22:29:46.219Z,60.40
2022-11-05T22:32:15.359Z,55.20
2022-11-05T22:34:43.273Z,51.10
2022-11-05T22:37:12.900Z,49.50
2022-11-05T22:39:40.886Z,49.30
2022-11-05T22:42:09.083Z,57.10
2022-11-05T22:44:37.209Z,53.90
2022-11-05T22:47:06.147Z,55.60
2022-11-05T22:49:34.289Z,52.70
2022-11-05T22:52:02.318Z,57.90
2022-11-05T22:54:33.823Z,56.90
2022-11-05T22:57:04.351Z,54.00
2022-11-05T22:59:32.628Z,55.20
2022-11-05T23:02:05.170Z,56.50
2022-11-05T23:04:36.338Z,53.50
2022-11-05T23:07:27.335Z,56.90
2022-11-05T23:10:14.451Z,54.00
2022-11-05T23:12:43.688Z,55.50
2022-11-05T23:15:31.869Z,58.80
2022-11-05T23:18:18.388Z,51.60
2022-11-05T23:21:04.761Z,57.80
2022-11-05T23:23:51.104Z,57.10
2022-11-05T23:26:37.560Z,52.70
2022-11-05T23:29:05.446Z,50.80
2022-11-05T23:31:51.842Z,55.20
2022-11-05T23:34:19.709Z,52.70
2022-11-05T23:37:05.887Z,53.60
2022-11-05T23:39:37.005Z,52.70
2022-11-05T23:42:28.361Z,48.20
2022-11-05T23:45:15.400Z,53.00
2022-11-05T23:48:01.868Z,55.00
2022-11-05T23:50:34.451Z,56.20
2022-11-05T23:53:06.857Z,52.60
2022-11-05T23:55:34.941Z,54.10
2022-11-05T23:58:02.963Z,55.30
